Time,TemperatureF,DewpointF,PressureIn,WindDirection,WindDirectionDegrees,WindSpeedMPH,WindSpeedGustMPH,Humidity,HourlyPrecipIn,Conditions,Clouds,dailyrainin,SoftwareType,DateUTC
2013-02-17 00:00:00,19.4,10.9,30.06,West,277,0.0,2.0,69,0.00,,,0.00,meteohub,2013-02-17 05:00:00,
2013-02-17 00:05:00,19.2,10.8,30.06,NNW,338,0.0,2.0,69,0.00,,,0.00,meteohub,2013-02-17 05:05:00,
2013-02-17 00:10:00,19.0,10.2,30.06,NNE,12,0.0,3.0,68,0.00,,,0.00,meteohub,2013-02-17 05:10:00,
2013-02-17 00:15:00,19.0,9.9,30.06,NNE,12,0.0,3.0,67,0.00,,,0.00,meteohub,2013-02-17 05:15:00,
2013-02-17 00:20:00,18.9,10.4,30.06,North,355,0.0,3.0,69,0.00,,,0.00,meteohub,2013-02-17 05:20:00,
2013-02-17 00:25:00,18.5,9.3,30.06,NNE,19,0.0,1.0,67,0.00,,,0.00,meteohub,2013-02-17 05:25:00,
2013-02-17 00:30:00,18.3,9.5,30.07,NNE,17,0.0,1.0,68,0.00,,,0.00,meteohub,2013-02-17 05:30:00,
2013-02-17 00:35:00,18.1,9.3,30.07,NE,53,0.0,1.0,68,0.00,,,0.00,meteohub,2013-02-17 05:35:00,
2013-02-17 00:40:00,18.1,9.0,30.07,East,89,0.0,1.0,67,0.00,,,0.00,meteohub,2013-02-17 05:40:00,
2013-02-17 00:45:00,18.0,9.1,30.07,East,89,3.0,3.0,68,0.00,,,0.00,meteohub,2013-02-17 05:45:00,
2013-02-17 00:50:00,18.1,7.7,30.08,NW,315,0.0,3.0,63,0.00,,,0.00,meteohub,2013-02-17 05:50:00,
2013-02-17 00:55:00,18.3,7.5,30.08,WSW,246,0.0,3.0,62,0.00,,,0.00,meteohub,2013-02-17 05:55:00,
2013-02-17 01:00:00,18.5,7.7,30.08,SSW,211,0.0,3.0,62,0.00,,,0.00,meteohub,2013-02-17 06:00:00,
2013-02-17 01:05:00,18.5,7.3,30.08,SW,226,0.0,1.0,61,0.00,,,0.00,meteohub,2013-02-17 06:05:00,
2013-02-17 01:10:00,18.5,7.3,30.08,WNW,303,0.0,1.0,61,0.00,,,0.00,meteohub,2013-02-17 06:10:00,
2013-02-17 01:15:00,18.9,6.4,30.08,North,354,3.0,5.0,58,0.00,,,0.00,meteohub,2013-02-17 06:15:00,
2013-02-17 01:20:00,19.0,5.2,30.08,WSW,238,1.0,12.0,54,0.00,,,0.00,meteohub,2013-02-17 06:20:00,
2013-02-17 01:25:00,19.2,6.1,30.08,WNW,297,1.0,12.0,56,0.00,,,0.00,meteohub,2013-02-17 06:25:00,
2013-02-17 01:30:00,19.2,4.8,30.08,SE,131,0.0,6.0,53,0.00,,,0.00,meteohub,2013-02-17 06:30:00,
2013-02-17 01:35:00,18.9,4.6,30.08,SSW,199,0.0,4.0,53,0.00,,,0.00,meteohub,2013-02-17 06:35:00,
2013-02-17 01:40:00,19.0,3.9,30.08,NNE,13,1.0,2.0,51,0.00,,,0.00,meteohub,2013-02-17 06:40:00,
2013-02-17 01:46:00,19.0,3.9,30.09,WNW,300,1.0,3.0,51,0.00,,,0.00,meteohub,2013-02-17 06:46:00,
2013-02-17 01:51:00,19.2,4.1,30.09,WSW,250,0.0,3.0,51,0.00,,,0.00,meteohub,2013-02-17 06:51:00,
2013-02-17 01:56:00,19.0,4.3,30.09,NNW,329,1.0,3.0,52,0.00,,,0.00,meteohub,2013-02-17 06:56:00,
2013-02-17 02:00:00,18.9,3.7,30.08,WNW,300,0.0,5.0,51,0.00,,,0.00,meteohub,2013-02-17 07:00:00,
2013-02-17 02:06:00,18.9,3.7,30.08,North,352,0.0,5.0,51,0.00,,,0.00,meteohub,2013-02-17 07:06:00,
2013-02-17 02:11:00,18.9,3.7,30.08,WNW,293,8.0,8.0,51,0.00,,,0.00,meteohub,2013-02-17 07:11:00,
2013-02-17 02:16:00,18.9,3.4,30.09,WNW,302,1.0,9.0,50,0.00,,,0.00,meteohub,2013-02-17 07:16:00,
2013-02-17 02:21:00,18.9,4.1,30.09,NW,308,1.0,9.0,52,0.00,,,0.00,meteohub,2013-02-17 07:21:00,
2013-02-17 02:26:00,18.9,3.4,30.09,NW,316,0.0,9.0,50,0.00,,,0.00,meteohub,2013-02-17 07:26:00,
2013-02-17 02:31:00,18.9,3.4,30.09,NE,41,0.0,3.0,50,0.00,,,0.00,meteohub,2013-02-17 07:31:00,
2013-02-17 02:36:00,18.7,3.6,30.09,NNW,339,0.0,3.0,51,0.00,,,0.00,meteohub,2013-02-17 07:36:00,
2013-02-17 02:41:00,18.7,3.2,30.09,West,264,0.0,3.0,50,0.00,,,0.00,meteohub,2013-02-17 07:41:00,
2013-02-17 02:46:00,18.7,3.2,30.09,NNW,341,0.0,4.0,50,0.00,,,0.00,meteohub,2013-02-17 07:46:00,
2013-02-17 02:51:00,18.5,3.4,30.09,NE,50,0.0,4.0,51,0.00,,,0.00,meteohub,2013-02-17 07:51:00,
2013-02-17 02:56:00,18.1,3.6,30.09,North,355,0.0,4.0,52,0.00,,,0.00,meteohub,2013-02-17 07:56:00,
2013-02-17 03:01:00,18.1,3.6,30.09,NNW,335,0.0,3.0,52,0.00,,,0.00,meteohub,2013-02-17 08:01:00,
2013-02-17 03:06:00,18.0,3.4,30.09,NW,310,0.0,9.0,52,0.00,,,0.00,meteohub,2013-02-17 08:06:00,
2013-02-17 03:11:00,17.8,3.9,30.09,SW,233,0.0,9.0,54,0.00,,,0.00,meteohub,2013-02-17 08:11:00,
2013-02-17 03:16:00,17.6,3.0,30.09,West,278,0.0,2.0,52,0.00,,,0.00,meteohub,2013-02-17 08:16:00,
2013-02-17 03:21:00,17.6,2.5,30.09,NE,43,0.0,2.0,51,0.00,,,0.00,meteohub,2013-02-17 08:21:00,
2013-02-17 03:26:00,17.4,2.8,30.10,ENE,73,0.0,2.0,52,0.00,,,0.00,meteohub,2013-02-17 08:26:00,
2013-02-17 03:31:00,16.3,2.1,30.10,NNE,13,1.0,1.0,53,0.00,,,0.00,meteohub,2013-02-17 08:31:00,
2013-02-17 03:36:00,16.3,2.1,30.10,NNE,13,1.0,1.0,53,0.00,,,0.00,meteohub,2013-02-17 08:36:00,
2013-02-17 07:45:00,12.6,7.0,30.15,North,-999,-999.0,-999.0,78,-99.99,,,0.00,meteohub,2013-02-17 12:45:00,
2013-02-17 07:50:00,13.3,7.2,30.15,North,-999,-999.0,-999.0,76,-99.99,,,0.00,meteohub,2013-02-17 12:50:00,
2013-02-17 07:55:00,13.6,8.1,30.16,NNE,26,0.0,-999.0,78,0.00,,,0.00,meteohub,2013-02-17 12:55:00,
2013-02-17 08:00:00,14.2,9.1,30.16,East,84,0.0,0.0,80,0.00,,,0.00,meteohub,2013-02-17 13:00:00,
2013-02-17 08:05:00,14.9,9.5,30.16,East,84,0.0,1.0,79,0.00,,,0.00,meteohub,2013-02-17 13:05:00,
2013-02-17 08:10:00,16.0,10.4,30.17,East,86,0.0,1.0,78,0.00,,,0.00,meteohub,2013-02-17 13:10:00,
2013-02-17 08:15:00,16.3,10.0,30.17,WSW,248,0.0,1.0,76,0.00,,,0.00,meteohub,2013-02-17 13:15:00,
2013-02-17 08:20:00,17.4,9.7,30.17,SE,129,0.0,1.0,71,0.00,,,0.00,meteohub,2013-02-17 13:20:00,
2013-02-17 08:25:00,18.7,9.5,30.17,SW,221,1.0,1.0,67,0.00,,,0.00,meteohub,2013-02-17 13:25:00,
2013-02-17 08:30:00,19.9,9.3,30.17,SE,127,2.0,5.0,63,0.00,,,0.00,meteohub,2013-02-17 13:30:00,
2013-02-17 08:35:00,21.0,7.7,30.18,East,79,0.0,6.0,56,0.00,,,0.00,meteohub,2013-02-17 13:35:00,
2013-02-17 08:40:00,21.9,7.0,30.18,ENE,60,1.0,6.0,52,0.00,,,0.00,meteohub,2013-02-17 13:40:00,
2013-02-17 08:45:00,22.6,7.2,30.18,NW,324,1.0,6.0,51,0.00,,,0.00,meteohub,2013-02-17 13:45:00,
2013-02-17 08:50:00,23.2,6.8,30.18,SSW,194,0.0,6.0,49,0.00,,,0.00,meteohub,2013-02-17 13:50:00,
2013-02-17 08:55:00,23.5,6.8,30.19,NE,44,2.0,8.0,48,0.00,,,0.00,meteohub,2013-02-17 13:55:00,
2013-02-17 09:00:00,24.3,6.4,30.19,SSW,195,5.0,8.0,46,0.00,,,0.00,meteohub,2013-02-17 14:00:00,
2013-02-17 09:05:00,24.6,6.3,30.19,WNW,303,0.0,11.0,45,0.00,,,0.00,meteohub,2013-02-17 14:05:00,
2013-02-17 09:10:00,25.2,6.8,30.19,East,89,4.0,11.0,45,0.00,,,0.00,meteohub,2013-02-17 14:10:00,
2013-02-17 09:15:00,25.5,7.2,30.19,West,259,1.0,11.0,45,0.00,,,0.00,meteohub,2013-02-17 14:15:00,
2013-02-17 09:20:00,26.1,7.2,30.19,West,262,1.0,6.0,44,0.00,,,0.00,meteohub,2013-02-17 14:20:00,
2013-02-17 09:25:00,26.2,5.7,30.19,WNW,286,1.0,6.0,41,0.00,,,0.00,meteohub,2013-02-17 14:25:00,
2013-02-17 09:30:00,26.4,5.9,30.19,WNW,300,4.0,6.0,41,0.00,,,0.00,meteohub,2013-02-17 14:30:00,
2013-02-17 09:35:00,26.4,5.4,30.19,NW,311,4.0,8.0,40,0.00,,,0.00,meteohub,2013-02-17 14:35:00,
2013-02-17 09:40:00,26.8,5.7,30.19,WSW,253,3.0,8.0,40,0.00,,,0.00,meteohub,2013-02-17 14:40:00,
2013-02-17 09:45:00,26.8,4.6,30.19,West,278,6.0,8.0,38,0.00,,,0.00,meteohub,2013-02-17 14:45:00,
2013-02-17 09:50:00,27.0,6.4,30.19,NW,321,0.0,13.0,41,0.00,,,0.00,meteohub,2013-02-17 14:50:00,
2013-02-17 09:55:00,27.1,5.5,30.19,NW,319,2.0,13.0,39,0.00,,,0.00,meteohub,2013-02-17 14:55:00,
2013-02-17 10:00:00,27.1,4.3,30.20,WNW,283,5.0,8.0,37,0.00,,,0.00,meteohub,2013-02-17 15:00:00,
2013-02-17 10:05:00,27.3,5.5,30.19,West,278,2.0,8.0,39,0.00,,,0.00,meteohub,2013-02-17 15:05:00,
2013-02-17 10:10:00,28.2,5.4,30.19,NE,39,4.0,8.0,37,0.00,,,0.00,meteohub,2013-02-17 15:10:00,
2013-02-17 10:15:00,28.2,4.6,30.19,NW,307,4.0,7.0,36,0.00,,,0.00,meteohub,2013-02-17 15:15:00,
2013-02-17 10:20:00,28.2,4.1,30.20,NW,326,0.0,6.0,35,0.00,,,0.00,meteohub,2013-02-17 15:20:00,
2013-02-17 10:25:00,28.6,5.0,30.20,NE,54,0.0,8.0,36,0.00,,,0.00,meteohub,2013-02-17 15:25:00,
2013-02-17 10:30:00,29.1,6.1,30.20,NNW,340,0.0,8.0,37,0.00,,,0.00,meteohub,2013-02-17 15:30:00,
2013-02-17 10:35:00,30.0,6.3,30.20,East,79,2.0,8.0,36,0.00,,,0.00,meteohub,2013-02-17 15:35:00,
2013-02-17 10:40:00,30.4,5.4,30.21,NNE,27,2.0,7.0,34,0.00,,,0.00,meteohub,2013-02-17 15:40:00,
2013-02-17 10:45:00,30.6,5.5,30.21,NE,34,1.0,4.0,34,0.00,,,0.00,meteohub,2013-02-17 15:45:00,
2013-02-17 10:50:00,31.6,5.2,30.22,ENE,76,0.0,4.0,32,0.00,,,0.00,meteohub,2013-02-17 15:50:00,
2013-02-17 10:55:00,31.6,3.0,30.22,SE,139,3.0,4.0,29,0.00,,,0.00,meteohub,2013-02-17 15:55:00,
2013-02-17 11:00:00,30.9,2.3,30.22,ESE,104,2.0,5.0,29,0.00,,,0.00,meteohub,2013-02-17 16:00:00,
2013-02-17 11:05:00,31.3,4.1,30.22,North,0,0.0,5.0,31,0.00,,,0.00,meteohub,2013-02-17 16:05:00,
2013-02-17 11:10:00,31.3,1.9,30.22,ENE,75,0.0,5.0,28,0.00,,,0.00,meteohub,2013-02-17 16:10:00,
2013-02-17 11:15:00,31.6,2.3,30.22,East,86,3.0,6.0,28,0.00,,,0.00,meteohub,2013-02-17 16:15:00,
2013-02-17 11:20:00,31.6,3.0,30.22,ENE,74,5.0,6.0,29,0.00,,,0.00,meteohub,2013-02-17 16:20:00,
2013-02-17 11:25:00,32.2,4.3,30.22,SE,141,2.0,6.0,30,0.00,,,0.00,meteohub,2013-02-17 16:25:00,
2013-02-17 11:30:00,32.5,2.3,30.22,NNE,19,3.0,6.0,27,0.00,,,0.00,meteohub,2013-02-17 16:30:00,
2013-02-17 11:35:00,32.9,5.5,30.22,WSW,250,1.0,9.0,31,0.00,,,0.00,meteohub,2013-02-17 16:35:00,
2013-02-17 11:40:00,33.6,3.2,30.22,NW,316,3.0,9.0,27,0.00,,,0.00,meteohub,2013-02-17 16:40:00,
2013-02-17 11:45:00,33.4,1.4,30.22,West,278,7.0,10.0,25,0.00,,,0.00,meteohub,2013-02-17 16:45:00,
2013-02-17 11:50:00,32.9,2.5,30.22,SE,139,3.0,15.0,27,0.00,,,0.00,meteohub,2013-02-17 16:50:00,
2013-02-17 11:56:00,33.6,2.3,30.22,NNW,328,4.0,15.0,26,0.00,,,0.00,meteohub,2013-02-17 16:56:00,
2013-02-17 12:01:00,33.8,2.5,30.21,West,276,8.0,17.0,26,0.00,,,0.00,meteohub,2013-02-17 17:01:00,
2013-02-17 12:06:00,33.6,2.3,30.21,East,85,3.0,17.0,26,0.00,,,0.00,meteohub,2013-02-17 17:06:00,
2013-02-17 12:11:00,34.2,4.5,30.21,NNW,348,3.0,17.0,28,0.00,,,0.00,meteohub,2013-02-17 17:11:00,
2013-02-17 12:16:00,34.0,4.3,30.21,West,278,5.0,14.0,28,0.00,,,0.00,meteohub,2013-02-17 17:16:00,
2013-02-17 12:21:00,34.0,4.3,30.21,WSW,249,13.0,13.0,28,0.00,,,0.00,meteohub,2013-02-17 17:21:00,
2013-02-17 12:26:00,34.5,3.9,30.21,WSW,238,2.0,13.0,27,0.00,,,0.00,meteohub,2013-02-17 17:26:00,
2013-02-17 12:31:00,35.1,5.2,30.21,ENE,61,3.0,13.0,28,0.00,,,0.00,meteohub,2013-02-17 17:31:00,
2013-02-17 12:36:00,34.7,3.4,30.21,NW,326,3.0,13.0,26,0.01,,,0.01,meteohub,2013-02-17 17:36:00,
2013-02-17 12:41:00,34.5,1.4,30.21,East,93,9.0,9.0,24,0.01,,,0.01,meteohub,2013-02-17 17:41:00,
2013-02-17 12:46:00,34.5,3.9,30.21,NNW,340,3.0,18.0,27,0.01,,,0.01,meteohub,2013-02-17 17:46:00,
2013-02-17 12:51:00,34.9,5.0,30.20,SW,233,7.0,18.0,28,0.01,,,0.01,meteohub,2013-02-17 17:51:00,
2013-02-17 12:56:00,34.9,3.4,30.20,West,277,7.0,13.0,26,0.01,,,0.01,meteohub,2013-02-17 17:56:00,
2013-02-17 13:01:00,35.1,5.2,30.20,NW,309,1.0,14.0,28,0.01,,,0.01,meteohub,2013-02-17 18:01:00,
2013-02-17 13:06:00,35.4,3.9,30.20,West,279,4.0,14.0,26,0.01,,,0.01,meteohub,2013-02-17 18:06:00,
2013-02-17 13:11:00,35.4,2.1,30.20,West,264,8.0,13.0,24,0.01,,,0.01,meteohub,2013-02-17 18:11:00,
2013-02-17 13:16:00,35.8,2.5,30.20,NNE,18,6.0,13.0,24,0.01,,,0.01,meteohub,2013-02-17 18:16:00,
2013-02-17 13:21:00,35.4,3.0,30.19,West,270,6.0,16.0,25,0.01,,,0.01,meteohub,2013-02-17 18:21:00,
2013-02-17 13:26:00,35.4,3.0,30.20,NNW,343,2.0,16.0,25,0.01,,,0.01,meteohub,2013-02-17 18:26:00,
2013-02-17 13:31:00,35.8,3.4,30.19,WSW,250,6.0,16.0,25,0.01,,,0.01,meteohub,2013-02-17 18:31:00,
2013-02-17 13:36:00,36.1,2.8,30.19,West,280,7.0,15.0,24,0.00,,,0.01,meteohub,2013-02-17 18:36:00,
2013-02-17 13:41:00,36.3,3.0,30.19,WSW,245,12.0,15.0,24,0.00,,,0.01,meteohub,2013-02-17 18:41:00,
2013-02-17 13:46:00,36.1,3.7,30.19,SW,229,5.0,17.0,25,0.00,,,0.01,meteohub,2013-02-17 18:46:00,
2013-02-17 13:51:00,36.5,3.2,30.19,West,267,6.0,17.0,24,0.00,,,0.01,meteohub,2013-02-17 18:51:00,
2013-02-17 13:56:00,36.7,4.1,30.19,West,269,11.0,17.0,25,0.00,,,0.01,meteohub,2013-02-17 18:56:00,
2013-02-17 14:01:00,36.0,4.5,30.19,West,262,8.0,15.0,26,0.00,,,0.01,meteohub,2013-02-17 19:01:00,
2013-02-17 14:06:00,36.3,5.5,30.19,ENE,72,1.0,15.0,27,0.00,,,0.01,meteohub,2013-02-17 19:06:00,
2013-02-17 14:11:00,37.2,5.5,30.19,West,278,6.0,15.0,26,0.00,,,0.01,meteohub,2013-02-17 19:11:00,
2013-02-17 14:16:00,36.9,4.3,30.19,West,269,5.0,14.0,25,0.00,,,0.01,meteohub,2013-02-17 19:16:00,
2013-02-17 14:21:00,36.9,4.3,30.19,WSW,253,6.0,14.0,25,0.00,,,0.01,meteohub,2013-02-17 19:21:00,
2013-02-17 14:26:00,37.2,5.5,30.19,WNW,284,2.0,14.0,26,0.00,,,0.01,meteohub,2013-02-17 19:26:00,
2013-02-17 14:31:00,37.4,4.8,30.19,North,3,0.0,13.0,25,0.00,,,0.01,meteohub,2013-02-17 19:31:00,
2013-02-17 14:36:00,37.6,6.6,30.18,West,260,6.0,12.0,27,0.00,,,0.01,meteohub,2013-02-17 19:36:00,
2013-02-17 14:41:00,37.8,4.3,30.18,West,264,3.0,13.0,24,0.00,,,0.01,meteohub,2013-02-17 19:41:00,
2013-02-17 14:46:00,38.1,5.4,30.18,ENE,62,1.0,13.0,25,0.00,,,0.01,meteohub,2013-02-17 19:46:00,
2013-02-17 14:52:00,37.8,5.0,30.19,ESE,106,4.0,13.0,25,0.00,,,0.01,meteohub,2013-02-17 19:52:00,
2013-02-17 14:57:00,37.9,6.1,30.19,NW,319,3.0,13.0,26,0.00,,,0.01,meteohub,2013-02-17 19:57:00,
2013-02-17 15:02:00,38.3,6.4,30.19,ENE,67,1.0,13.0,26,0.00,,,0.01,meteohub,2013-02-17 20:02:00,
2013-02-17 15:07:00,38.5,4.8,30.19,WSW,248,8.0,11.0,24,0.00,,,0.01,meteohub,2013-02-17 20:07:00,
2013-02-17 15:12:00,38.1,6.3,30.19,WNW,295,3.0,13.0,26,0.00,,,0.01,meteohub,2013-02-17 20:12:00,
2013-02-17 15:17:00,38.5,6.6,30.19,WSW,243,5.0,13.0,26,0.00,,,0.01,meteohub,2013-02-17 20:17:00,
2013-02-17 15:22:00,38.1,5.4,30.19,SSW,200,3.0,13.0,25,0.00,,,0.01,meteohub,2013-02-17 20:22:00,
2013-02-17 15:27:00,37.0,4.5,30.19,WSW,256,3.0,14.0,25,0.00,,,0.01,meteohub,2013-02-17 20:27:00,
2013-02-17 15:32:00,36.9,5.2,30.19,ENE,67,0.0,14.0,26,0.00,,,0.01,meteohub,2013-02-17 20:32:00,
2013-02-17 15:37:00,37.2,4.6,30.20,NW,316,7.0,14.0,25,0.00,,,0.01,meteohub,2013-02-17 20:37:00,
2013-02-17 15:42:00,36.9,4.3,30.20,NNE,30,5.0,13.0,25,0.00,,,0.01,meteohub,2013-02-17 20:42:00,
2013-02-17 15:47:00,36.7,5.0,30.20,WNW,284,4.0,13.0,26,0.00,,,0.01,meteohub,2013-02-17 20:47:00,
2013-02-17 15:52:00,36.9,5.2,30.19,WNW,291,2.0,12.0,26,0.00,,,0.01,meteohub,2013-02-17 20:52:00,
2013-02-17 15:57:00,37.2,6.3,30.20,SW,226,1.0,12.0,27,0.00,,,0.01,meteohub,2013-02-17 20:57:00,
2013-02-17 16:02:00,37.4,4.8,30.20,West,266,3.0,11.0,25,0.00,,,0.01,meteohub,2013-02-17 21:02:00,
2013-02-17 16:07:00,37.6,5.7,30.20,SSE,155,0.0,11.0,26,0.00,,,0.01,meteohub,2013-02-17 21:07:00,
2013-02-17 16:12:00,38.1,5.4,30.20,WSW,253,5.0,11.0,25,0.00,,,0.01,meteohub,2013-02-17 21:12:00,
2013-02-17 16:17:00,37.8,5.0,30.21,ESE,105,3.0,17.0,25,0.00,,,0.01,meteohub,2013-02-17 21:17:00,
2013-02-17 16:22:00,37.8,5.0,30.21,West,270,6.0,17.0,25,0.00,,,0.01,meteohub,2013-02-17 21:22:00,
2013-02-17 16:27:00,37.6,5.0,30.21,WNW,285,5.0,17.0,25,0.00,,,0.01,meteohub,2013-02-17 21:27:00,
2013-02-17 16:32:00,37.9,5.2,30.21,WSW,252,2.0,12.0,25,0.00,,,0.01,meteohub,2013-02-17 21:32:00,
2013-02-17 16:37:00,38.1,6.3,30.21,SSE,151,3.0,8.0,26,0.00,,,0.01,meteohub,2013-02-17 21:37:00,
2013-02-17 16:42:00,38.3,6.4,30.21,SSW,205,4.0,6.0,26,0.00,,,0.01,meteohub,2013-02-17 21:42:00,
2013-02-17 16:47:00,38.1,5.4,30.22,West,262,5.0,7.0,25,0.00,,,0.01,meteohub,2013-02-17 21:47:00,
2013-02-17 16:52:00,37.9,6.1,30.21,WSW,243,3.0,8.0,26,0.00,,,0.01,meteohub,2013-02-17 21:52:00,
2013-02-17 16:57:00,37.6,5.7,30.22,NW,314,4.0,9.0,26,0.00,,,0.01,meteohub,2013-02-17 21:57:00,
2013-02-17 17:02:00,37.0,7.0,30.22,North,349,3.0,9.0,28,0.00,,,0.01,meteohub,2013-02-17 22:02:00,
2013-02-17 17:07:00,36.9,5.9,30.22,ENE,60,0.0,9.0,27,0.00,,,0.01,meteohub,2013-02-17 22:07:00,
2013-02-17 17:12:00,36.9,6.8,30.22,WNW,288,2.0,13.0,28,0.00,,,0.01,meteohub,2013-02-17 22:12:00,
2013-02-17 17:17:00,37.0,7.0,30.22,West,265,3.0,13.0,28,0.00,,,0.01,meteohub,2013-02-17 22:17:00,
2013-02-17 17:22:00,36.3,6.3,30.23,SE,126,0.0,13.0,28,0.00,,,0.01,meteohub,2013-02-17 22:22:00,
2013-02-17 17:27:00,35.8,6.6,30.23,NW,315,0.0,6.0,29,0.00,,,0.01,meteohub,2013-02-17 22:27:00,
2013-02-17 17:32:00,35.4,6.3,30.23,NW,318,4.0,6.0,29,0.00,,,0.01,meteohub,2013-02-17 22:32:00,
2013-02-17 17:37:00,35.2,7.0,30.23,SW,221,6.0,10.0,30,0.00,,,0.01,meteohub,2013-02-17 22:37:00,
2013-02-17 17:42:00,35.1,6.8,30.23,West,274,0.0,10.0,30,0.00,,,0.01,meteohub,2013-02-17 22:42:00,
2013-02-17 17:47:00,34.7,6.4,30.24,NW,315,2.0,10.0,30,0.00,,,0.01,meteohub,2013-02-17 22:47:00,
2013-02-17 17:52:00,34.0,6.4,30.24,WNW,298,0.0,8.0,31,0.00,,,0.01,meteohub,2013-02-17 22:52:00,
2013-02-17 17:57:00,33.4,7.3,30.24,WSW,250,1.0,4.0,33,0.00,,,0.01,meteohub,2013-02-17 22:57:00,
2013-02-17 18:02:00,32.9,7.0,30.25,NW,313,0.0,4.0,33,0.00,,,0.01,meteohub,2013-02-17 23:02:00,
2013-02-17 18:07:00,32.4,6.4,30.25,SSW,205,1.0,7.0,33,0.00,,,0.01,meteohub,2013-02-17 23:07:00,
2013-02-17 18:12:00,32.0,7.5,30.25,SE,125,0.0,7.0,35,0.00,,,0.01,meteohub,2013-02-17 23:12:00,
2013-02-17 18:17:00,31.5,7.5,30.25,West,271,2.0,7.0,36,0.00,,,0.01,meteohub,2013-02-17 23:17:00,
2013-02-17 18:22:00,31.1,6.6,30.25,West,270,2.0,7.0,35,0.00,,,0.01,meteohub,2013-02-17 23:22:00,
2013-02-17 18:27:00,30.9,6.4,30.26,WSW,249,0.0,4.0,35,0.00,,,0.01,meteohub,2013-02-17 23:27:00,
2013-02-17 18:32:00,30.6,6.8,30.26,SE,138,1.0,4.0,36,0.00,,,0.01,meteohub,2013-02-17 23:32:00,
2013-02-17 18:37:00,30.2,7.0,30.27,SSW,195,0.0,3.0,37,0.00,,,0.01,meteohub,2013-02-17 23:37:00,
2013-02-17 18:42:00,29.8,6.8,30.27,SSE,149,0.0,2.0,37,0.00,,,0.01,meteohub,2013-02-17 23:42:00,
2013-02-17 18:47:00,29.5,7.0,30.27,SE,141,0.0,2.0,38,0.00,,,0.01,meteohub,2013-02-17 23:47:00,
2013-02-17 18:52:00,29.1,7.2,30.27,SSE,150,0.0,1.0,39,0.00,,,0.01,meteohub,2013-02-17 23:52:00,
2013-02-17 18:57:00,28.9,7.2,30.27,WSW,256,0.0,1.0,39,0.00,,,0.01,meteohub,2013-02-17 23:57:00,
2013-02-17 19:02:00,28.8,7.5,30.27,SW,231,0.0,2.0,40,0.00,,,0.01,meteohub,2013-02-18 00:02:00,
2013-02-17 19:07:00,28.8,8.1,30.27,East,93,1.0,2.0,41,0.00,,,0.00,meteohub,2013-02-18 00:07:00,
2013-02-17 19:12:00,28.6,7.9,30.27,SSW,205,0.0,2.0,41,0.00,,,0.00,meteohub,2013-02-18 00:12:00,
2013-02-17 19:17:00,28.6,8.4,30.27,ENE,73,0.0,2.0,42,0.00,,,0.00,meteohub,2013-02-18 00:17:00,
2013-02-17 19:22:00,28.2,9.1,30.28,ESE,114,0.0,3.0,44,0.00,,,0.00,meteohub,2013-02-18 00:22:00,
2013-02-17 19:27:00,28.2,8.6,30.28,SE,136,0.0,3.0,43,0.00,,,0.00,meteohub,2013-02-18 00:27:00,
2013-02-17 19:32:00,28.6,9.0,30.28,WSW,253,0.0,2.0,43,0.00,,,0.00,meteohub,2013-02-18 00:32:00,
2013-02-17 19:37:00,28.2,10.0,30.29,East,101,0.0,3.0,46,0.00,,,0.00,meteohub,2013-02-18 00:37:00,
2013-02-17 19:42:00,27.7,10.0,30.29,SSE,156,0.0,3.0,47,0.00,,,0.00,meteohub,2013-02-18 00:42:00,
2013-02-17 19:47:00,27.7,9.7,30.29,South,188,0.0,1.0,46,0.00,,,0.00,meteohub,2013-02-18 00:47:00,
2013-02-17 19:52:00,28.0,9.5,30.29,SSW,208,1.0,3.0,45,0.00,,,0.00,meteohub,2013-02-18 00:52:00,
2013-02-17 19:57:00,27.9,9.7,30.29,SE,134,0.0,3.0,46,0.00,,,0.00,meteohub,2013-02-18 00:57:00,
2013-02-17 20:02:00,27.9,9.7,30.29,WSW,257,0.0,3.0,46,0.00,,,0.00,meteohub,2013-02-18 01:02:00,
2013-02-17 20:07:00,27.9,10.2,30.29,NNE,23,0.0,3.0,47,0.00,,,0.00,meteohub,2013-02-18 01:07:00,
2013-02-17 20:12:00,27.5,10.4,30.29,NE,42,0.0,2.0,48,0.00,,,0.00,meteohub,2013-02-18 01:12:00,
2013-02-17 20:17:00,27.3,10.2,30.29,NE,42,0.0,2.0,48,0.00,,,0.00,meteohub,2013-02-18 01:17:00,
2013-02-17 20:22:00,27.3,9.7,30.29,West,267,0.0,1.0,47,0.00,,,0.00,meteohub,2013-02-18 01:22:00,
2013-02-17 20:27:00,27.1,10.6,30.29,ENE,76,0.0,1.0,49,0.00,,,0.00,meteohub,2013-02-18 01:27:00,
2013-02-17 20:32:00,27.1,10.0,30.29,ENE,77,0.0,1.0,48,0.00,,,0.00,meteohub,2013-02-18 01:32:00,
2013-02-17 20:37:00,27.0,9.9,30.29,NNW,345,0.0,1.0,48,0.00,,,0.00,meteohub,2013-02-18 01:37:00,
2013-02-17 20:42:00,27.0,11.3,30.30,WSW,252,0.0,1.0,51,0.00,,,0.00,meteohub,2013-02-18 01:42:00,
2013-02-17 20:47:00,27.0,10.8,30.30,ENE,77,0.0,2.0,50,0.00,,,0.00,meteohub,2013-02-18 01:47:00,
2013-02-17 20:52:00,27.0,10.8,30.30,NE,39,0.0,2.0,50,0.00,,,0.00,meteohub,2013-02-18 01:52:00,
2013-02-17 20:57:00,27.0,10.8,30.30,NW,320,0.0,1.0,50,0.00,,,0.00,meteohub,2013-02-18 01:57:00,
2013-02-17 21:02:00,27.0,10.4,30.30,SSW,198,0.0,2.0,49,0.00,,,0.00,meteohub,2013-02-18 02:02:00,
2013-02-17 21:07:00,26.8,10.6,30.30,WSW,238,0.0,2.0,50,0.00,,,0.00,meteohub,2013-02-18 02:07:00,
2013-02-17 21:12:00,26.8,10.6,30.30,WSW,240,0.0,2.0,50,0.00,,,0.00,meteohub,2013-02-18 02:12:00,
2013-02-17 21:17:00,26.8,10.6,30.30,WSW,240,0.0,2.0,50,0.00,,,0.00,meteohub,2013-02-18 02:17:00,
2013-02-17 21:22:00,26.4,10.8,30.30,WNW,295,0.0,2.0,51,0.00,,,0.00,meteohub,2013-02-18 02:22:00,
2013-02-17 21:27:00,26.6,11.3,30.31,East,81,0.0,1.0,52,0.00,,,0.00,meteohub,2013-02-18 02:27:00,
2013-02-17 21:32:00,26.2,10.9,30.31,NE,53,0.0,2.0,52,0.00,,,0.00,meteohub,2013-02-18 02:32:00,
2013-02-17 21:37:00,26.2,12.2,30.31,ENE,68,0.0,2.0,55,0.00,,,0.00,meteohub,2013-02-18 02:37:00,
2013-02-17 21:42:00,26.1,11.3,30.31,ESE,105,0.0,1.0,53,0.00,,,0.00,meteohub,2013-02-18 02:42:00,
2013-02-17 21:47:00,25.9,11.5,30.31,ENE,76,0.0,1.0,54,0.00,,,0.00,meteohub,2013-02-18 02:47:00,
2013-02-17 21:52:00,25.9,11.5,30.32,SE,127,0.0,2.0,54,0.00,,,0.00,meteohub,2013-02-18 02:52:00,
2013-02-17 21:57:00,25.9,12.0,30.32,ENE,70,0.0,2.0,55,0.00,,,0.00,meteohub,2013-02-18 02:57:00,
2013-02-17 22:02:00,25.9,12.4,30.32,East,84,1.0,2.0,56,0.00,,,0.00,meteohub,2013-02-18 03:02:00,
2013-02-17 22:07:00,25.9,13.5,30.32,SE,134,0.0,2.0,59,0.00,,,0.00,meteohub,2013-02-18 03:07:00,
2013-02-17 22:12:00,25.5,13.1,30.32,SE,124,0.0,1.0,59,0.00,,,0.00,meteohub,2013-02-18 03:12:00,
2013-02-17 22:17:00,25.7,12.6,30.32,East,101,0.0,1.0,57,0.00,,,0.00,meteohub,2013-02-18 03:17:00,
2013-02-17 22:22:00,25.7,12.2,30.32,ENE,78,0.0,1.0,56,0.00,,,0.00,meteohub,2013-02-18 03:22:00,
2013-02-17 22:27:00,25.5,11.7,30.32,East,79,0.0,1.0,55,0.00,,,0.00,meteohub,2013-02-18 03:27:00,
2013-02-17 22:32:00,25.7,10.9,30.32,SSE,165,0.0,2.0,53,0.00,,,0.00,meteohub,2013-02-18 03:32:00,
2013-02-17 22:37:00,26.1,11.3,30.31,East,93,0.0,2.0,53,0.00,,,0.00,meteohub,2013-02-18 03:37:00,
2013-02-17 22:42:00,26.1,11.7,30.31,NW,316,0.0,2.0,54,0.00,,,0.00,meteohub,2013-02-18 03:42:00,
2013-02-17 22:47:00,26.4,11.7,30.31,North,5,0.0,2.0,53,0.00,,,0.00,meteohub,2013-02-18 03:47:00,
2013-02-17 22:52:00,26.4,11.7,30.32,SSW,205,0.0,2.0,53,0.00,,,0.00,meteohub,2013-02-18 03:52:00,
2013-02-17 22:57:00,26.4,11.1,30.32,WSW,255,1.0,6.0,52,0.00,,,0.00,meteohub,2013-02-18 03:57:00,
2013-02-17 23:02:00,26.6,10.9,30.32,WSW,250,1.0,6.0,51,0.00,,,0.00,meteohub,2013-02-18 04:02:00,
2013-02-17 23:07:00,26.6,11.3,30.32,SW,236,1.0,2.0,52,0.00,,,0.00,meteohub,2013-02-18 04:07:00,
2013-02-17 23:12:00,26.6,12.2,30.32,WNW,296,0.0,4.0,54,0.00,,,0.00,meteohub,2013-02-18 04:12:00,
2013-02-17 23:17:00,25.7,12.2,30.32,NE,36,0.0,4.0,56,0.00,,,0.00,meteohub,2013-02-18 04:17:00,
2013-02-17 23:22:00,25.3,11.5,30.31,East,94,0.0,2.0,55,0.00,,,0.00,meteohub,2013-02-18 04:22:00,
2013-02-17 23:27:00,25.5,11.1,30.32,SW,228,0.0,1.0,54,0.00,,,0.00,meteohub,2013-02-18 04:27:00,
2013-02-17 23:32:00,25.5,11.1,30.31,ENE,67,0.0,1.0,54,0.00,,,0.00,meteohub,2013-02-18 04:32:00,
2013-02-17 23:37:00,25.3,10.9,30.31,ENE,68,0.0,1.0,54,0.00,,,0.00,meteohub,2013-02-18 04:37:00,
2013-02-17 23:42:00,25.0,11.1,30.31,ENE,61,0.0,1.0,55,0.00,,,0.00,meteohub,2013-02-18 04:42:00,
2013-02-17 23:47:00,25.0,11.1,30.31,ENE,61,0.0,1.0,55,0.00,,,0.00,meteohub,2013-02-18 04:47:00,
2013-02-17 23:52:00,24.6,11.1,30.32,ENE,61,0.0,1.0,56,0.00,,,0.00,meteohub,2013-02-18 04:52:00,
2013-02-17 23:57:00,24.3,10.8,30.32,ENE,61,0.0,0.0,56,0.00,,,0.00,meteohub,2013-02-18 04:57:00,